UAL184 KSAN-KSFO
Flight info
| Callsign | UAL184 |
|---|---|
| Flight time | N/A |
| Altitude | 34000 |
| Route | PADRZ2 IKAYE RIZIN SPLNT STOKD SERFR SERFR4 |
| Aircraft | B772/H-SDE2E3FGHIJ5LORVWXY/LB1D1 |
Departure
| Time | 2026-04-24 23:21 |
|---|---|
| Airport | San Diego International Airport (KSAN) |
Arrival
| Time | N/A |
|---|---|
| Airport | San Francisco International Airport (KSFO) |
| Time | Latitude | Longitude | Altitude | Speed | Heading |
|---|---|---|---|---|---|
| 2026-04-24 22:53 | 32.73348 | -117.20046 | 30 ft | 0 kts | 263° |
| 2026-04-24 23:02 | 32.73348 | -117.20045 | 30 ft | 0 kts | 263° |
| 2026-04-24 23:03 | 32.73349 | -117.20033 | 29 ft | 8 kts | 263° |
| 2026-04-24 23:03 | 32.73352 | -117.20004 | 30 ft | 2 kts | 263° |
| 2026-04-24 23:03 | 32.73352 | -117.19986 | 30 ft | 2 kts | 305° |
| 2026-04-24 23:03 | 32.73346 | -117.19980 | 27 ft | 0 kts | 8° |
| 2026-04-24 23:08 | 32.73388 | -117.19972 | 30 ft | 13 kts | 9° |
| 2026-04-24 23:08 | 32.73461 | -117.19938 | 31 ft | 11 kts | 47° |
| 2026-04-24 23:08 | 32.73475 | -117.19918 | 31 ft | 11 kts | 51° |
| 2026-04-24 23:08 | 32.73470 | -117.19843 | 32 ft | 11 kts | 113° |
| 2026-04-24 23:09 | 32.73437 | -117.19729 | 31 ft | 20 kts | 103° |
| 2026-04-24 23:09 | 32.73394 | -117.19542 | 32 ft | 25 kts | 105° |
| 2026-04-24 23:09 | 32.73342 | -117.19336 | 29 ft | 28 kts | 106° |
| 2026-04-24 23:09 | 32.73290 | -117.19122 | 30 ft | 25 kts | 108° |
| 2026-04-24 23:10 | 32.73246 | -117.18939 | 31 ft | 22 kts | 105° |
| 2026-04-24 23:10 | 32.73209 | -117.18780 | 35 ft | 18 kts | 106° |
| 2026-04-24 23:10 | 32.73177 | -117.18647 | 32 ft | 16 kts | 106° |
| 2026-04-24 23:10 | 32.73145 | -117.18521 | 29 ft | 16 kts | 106° |
| 2026-04-24 23:11 | 32.73116 | -117.18403 | 29 ft | 14 kts | 106° |
| 2026-04-24 23:11 | 32.73091 | -117.18301 | 29 ft | 12 kts | 106° |
| 2026-04-24 23:11 | 32.73068 | -117.18209 | 27 ft | 11 kts | 105° |
| 2026-04-24 23:11 | 32.73047 | -117.18119 | 26 ft | 11 kts | 105° |
| 2026-04-24 23:12 | 32.73028 | -117.18038 | 26 ft | 9 kts | 105° |
| 2026-04-24 23:12 | 32.73009 | -117.17958 | 26 ft | 14 kts | 106° |
| 2026-04-24 23:12 | 32.72966 | -117.17790 | 27 ft | 22 kts | 108° |
| 2026-04-24 23:12 | 32.72956 | -117.17684 | 26 ft | 7 kts | 78° |
| 2026-04-24 23:13 | 32.72956 | -117.17682 | 26 ft | 0 kts | 78° |
| 2026-04-24 23:20 | 32.72971 | -117.17639 | 27 ft | 10 kts | 57° |
| 2026-04-24 23:21 | 32.73032 | -117.17642 | 28 ft | 11 kts | 303° |
| 2026-04-24 23:21 | 32.73073 | -117.17800 | 27 ft | 51 kts | 285° |
| 2026-04-24 23:21 | 32.73264 | -117.18583 | 30 ft | 142 kts | 285° |
| 2026-04-24 23:21 | 32.73590 | -117.19885 | 636 ft | 164 kts | 285° |
| 2026-04-24 23:22 | 32.73916 | -117.21110 | 1869 ft | 158 kts | 283° |
| 2026-04-24 23:22 | 32.74363 | -117.22404 | 2061 ft | 181 kts | 302° |
| 2026-04-24 23:22 | 32.75188 | -117.23583 | 2202 ft | 192 kts | 304° |
| 2026-04-24 23:22 | 32.75984 | -117.24932 | 2422 ft | 205 kts | 302° |
| 2026-04-24 23:23 | 32.76795 | -117.26357 | 2903 ft | 211 kts | 302° |
| 2026-04-24 23:23 | 32.77630 | -117.27816 | 3437 ft | 217 kts | 303° |
| 2026-04-24 23:23 | 32.78487 | -117.29308 | 4018 ft | 219 kts | 302° |
| 2026-04-24 23:23 | 32.79350 | -117.30804 | 4646 ft | 221 kts | 303° |
| 2026-04-24 23:24 | 32.80237 | -117.32315 | 5202 ft | 224 kts | 305° |
| 2026-04-24 23:24 | 32.81172 | -117.33770 | 5882 ft | 222 kts | 306° |
| 2026-04-24 23:24 | 32.82124 | -117.35231 | 6418 ft | 225 kts | 306° |
| 2026-04-24 23:24 | 32.83085 | -117.36708 | 6986 ft | 224 kts | 305° |
| 2026-04-24 23:25 | 32.84032 | -117.38167 | 7534 ft | 226 kts | 305° |
| 2026-04-24 23:25 | 32.84998 | -117.39657 | 8101 ft | 228 kts | 304° |
| 2026-04-24 23:25 | 32.85967 | -117.41156 | 8660 ft | 229 kts | 304° |
| 2026-04-24 23:25 | 32.86938 | -117.42660 | 9228 ft | 229 kts | 304° |
| 2026-04-24 23:26 | 32.87912 | -117.44170 | 9791 ft | 230 kts | 303° |
| 2026-04-24 23:26 | 32.88885 | -117.45680 | 10317 ft | 230 kts | 303° |
| 2026-04-24 23:26 | 32.89862 | -117.47198 | 10830 ft | 230 kts | 303° |
| 2026-04-24 23:26 | 32.90838 | -117.48715 | 11320 ft | 231 kts | 303° |
| 2026-04-24 23:27 | 32.91816 | -117.50237 | 11839 ft | 231 kts | 302° |
| 2026-04-24 23:27 | 32.92795 | -117.51759 | 12344 ft | 232 kts | 302° |
| 2026-04-24 23:27 | 32.93775 | -117.53286 | 12845 ft | 232 kts | 302° |
| 2026-04-24 23:27 | 32.94759 | -117.54818 | 13344 ft | 233 kts | 302° |
| 2026-04-24 23:28 | 32.95745 | -117.56356 | 13838 ft | 233 kts | 301° |
| 2026-04-24 23:28 | 32.96719 | -117.57874 | 14255 ft | 234 kts | 301° |
| 2026-04-24 23:28 | 32.97710 | -117.59422 | 14671 ft | 236 kts | 301° |
| 2026-04-24 23:28 | 32.98710 | -117.60981 | 15083 ft | 237 kts | 301° |
| 2026-04-24 23:29 | 32.99710 | -117.62544 | 15517 ft | 237 kts | 301° |
| 2026-04-24 23:29 | 33.00714 | -117.64111 | 15953 ft | 238 kts | 300° |
| 2026-04-24 23:29 | 33.01716 | -117.65677 | 16375 ft | 238 kts | 300° |
| 2026-04-24 23:29 | 33.02721 | -117.67248 | 16767 ft | 239 kts | 300° |
| 2026-04-24 23:30 | 33.03736 | -117.68836 | 17154 ft | 240 kts | 300° |
| 2026-04-24 23:30 | 33.04751 | -117.70424 | 17536 ft | 241 kts | 300° |
| 2026-04-24 23:30 | 33.05759 | -117.72003 | 17895 ft | 242 kts | 300° |
| 2026-04-24 23:30 | 33.06847 | -117.73550 | 18223 ft | 248 kts | 307° |
| 2026-04-24 23:31 | 33.08162 | -117.74929 | 18498 ft | 253 kts | 311° |
| 2026-04-24 23:31 | 33.09527 | -117.76265 | 18805 ft | 254 kts | 311° |
| 2026-04-24 23:31 | 33.10894 | -117.77608 | 19108 ft | 255 kts | 311° |
| 2026-04-24 23:31 | 33.12258 | -117.78964 | 19391 ft | 256 kts | 311° |
| 2026-04-24 23:32 | 33.13621 | -117.80332 | 19680 ft | 257 kts | 311° |
| 2026-04-24 23:32 | 33.14986 | -117.81712 | 19952 ft | 258 kts | 310° |
| 2026-04-24 23:32 | 33.16356 | -117.83104 | 20224 ft | 259 kts | 310° |
| 2026-04-24 23:32 | 33.17730 | -117.84502 | 20490 ft | 260 kts | 310° |
| 2026-04-24 23:33 | 33.19109 | -117.85907 | 20753 ft | 261 kts | 310° |
| 2026-04-24 23:33 | 33.20441 | -117.87364 | 21044 ft | 258 kts | 307° |
| 2026-04-24 23:33 | 33.21716 | -117.88875 | 21297 ft | 259 kts | 306° |
| 2026-04-24 23:33 | 33.22987 | -117.90404 | 21545 ft | 260 kts | 306° |
| 2026-04-24 23:34 | 33.24244 | -117.91918 | 21787 ft | 261 kts | 306° |
| 2026-04-24 23:34 | 33.25527 | -117.93462 | 22029 ft | 262 kts | 306° |
| 2026-04-24 23:34 | 33.26816 | -117.95009 | 22265 ft | 263 kts | 306° |
| 2026-04-24 23:34 | 33.28108 | -117.96560 | 22496 ft | 264 kts | 306° |
| 2026-04-24 23:35 | 33.29406 | -117.98114 | 22730 ft | 264 kts | 306° |
| 2026-04-24 23:35 | 33.30710 | -117.99675 | 22952 ft | 265 kts | 306° |
| 2026-04-24 23:35 | 33.32018 | -118.01241 | 23175 ft | 266 kts | 306° |
| 2026-04-24 23:35 | 33.33310 | -118.02787 | 23387 ft | 267 kts | 306° |
| 2026-04-24 23:36 | 33.34625 | -118.04361 | 23589 ft | 268 kts | 306° |
| 2026-04-24 23:36 | 33.35945 | -118.05942 | 23776 ft | 269 kts | 306° |
| 2026-04-24 23:36 | 33.37265 | -118.07522 | 23959 ft | 269 kts | 306° |
| 2026-04-24 23:36 | 33.38592 | -118.09111 | 24188 ft | 269 kts | 306° |
| 2026-04-24 23:37 | 33.39912 | -118.10691 | 24399 ft | 269 kts | 306° |
| 2026-04-24 23:37 | 33.41239 | -118.12281 | 24582 ft | 269 kts | 306° |
| 2026-04-24 23:37 | 33.43986 | -118.15595 | 24713 ft | 293 kts | 306° |
| 2026-04-24 23:38 | 33.45457 | -118.17370 | 24797 ft | 307 kts | 307° |
| 2026-04-24 23:38 | 33.47001 | -118.19233 | 24897 ft | 322 kts | 307° |
| 2026-04-24 23:38 | 33.48619 | -118.21183 | 24997 ft | 338 kts | 307° |
| 2026-04-24 23:38 | 33.50311 | -118.23221 | 25085 ft | 353 kts | 308° |
| 2026-04-24 23:39 | 33.52082 | -118.25353 | 25204 ft | 369 kts | 308° |
| 2026-04-24 23:39 | 33.53934 | -118.27582 | 25306 ft | 385 kts | 308° |
| 2026-04-24 23:39 | 33.55857 | -118.29898 | 25423 ft | 400 kts | 308° |
| 2026-04-24 23:39 | 33.57831 | -118.32233 | 25539 ft | 410 kts | 311° |
| 2026-04-24 23:40 | 33.60110 | -118.34343 | 25221 ft | 420 kts | 320° |
| 2026-04-24 23:40 | 33.62653 | -118.35974 | 24202 ft | 413 kts | 329° |
| 2026-04-24 23:40 | 33.65389 | -118.37040 | 22731 ft | 415 kts | 340° |
| 2026-04-24 23:40 | 33.68269 | -118.37504 | 21151 ft | 421 kts | 351° |
| 2026-04-24 23:41 | 33.71215 | -118.37337 | 19646 ft | 426 kts | 1° |
| 2026-04-24 23:41 | 33.74106 | -118.36530 | 18302 ft | 427 kts | 13° |
| 2026-04-24 23:41 | 33.76824 | -118.35114 | 16916 ft | 426 kts | 24° |
| 2026-04-24 23:41 | 33.79275 | -118.33138 | 15666 ft | 421 kts | 36° |
| 2026-04-24 23:42 | 33.81352 | -118.30704 | 14460 ft | 415 kts | 47° |
| 2026-04-24 23:42 | 33.83032 | -118.27901 | 12989 ft | 413 kts | 57° |
| 2026-04-24 23:42 | 33.84445 | -118.24934 | 11721 ft | 403 kts | 60° |
| 2026-04-24 23:42 | 33.85756 | -118.22013 | 10679 ft | 388 kts | 61° |
| 2026-04-24 23:43 | 33.86960 | -118.19170 | 9593 ft | 375 kts | 66° |
| 2026-04-24 23:43 | 33.87689 | -118.16248 | 8424 ft | 367 kts | 82° |
| 2026-04-24 23:43 | 33.87866 | -118.13216 | 7576 ft | 359 kts | 91° |
| 2026-04-24 23:43 | 33.87671 | -118.10321 | 7239 ft | 334 kts | 98° |
| 2026-04-24 23:44 | 33.87318 | -118.07640 | 7055 ft | 314 kts | 101° |
| 2026-04-24 23:44 | 33.86950 | -118.05067 | 6963 ft | 313 kts | 101° |
| 2026-04-24 23:44 | 33.86585 | -118.02566 | 6914 ft | 292 kts | 101° |
| 2026-04-24 23:44 | 33.86246 | -118.00254 | 6662 ft | 271 kts | 101° |
| 2026-04-24 23:45 | 33.85958 | -117.98043 | 6075 ft | 265 kts | 93° |
| 2026-04-24 23:45 | 33.86211 | -117.95891 | 5367 ft | 263 kts | 66° |
| 2026-04-24 23:45 | 33.87293 | -117.94142 | 4609 ft | 262 kts | 34° |
| 2026-04-24 23:45 | 33.88907 | -117.93292 | 4028 ft | 250 kts | 5° |
| 2026-04-24 23:46 | 33.90568 | -117.93507 | 3429 ft | 242 kts | 332° |
| 2026-04-24 23:46 | 33.91864 | -117.94774 | 3219 ft | 242 kts | 301° |
| 2026-04-24 23:46 | 33.92473 | -117.96630 | 3075 ft | 237 kts | 280° |
| 2026-04-24 23:46 | 33.92830 | -117.98567 | 2949 ft | 239 kts | 281° |
| 2026-04-24 23:47 | 33.93215 | -118.00514 | 2952 ft | 237 kts | 282° |
| 2026-04-24 23:47 | 33.93594 | -118.02431 | 2944 ft | 233 kts | 281° |
| 2026-04-24 23:47 | 33.93974 | -118.04322 | 2948 ft | 231 kts | 281° |
| 2026-04-24 23:47 | 33.94353 | -118.06205 | 2957 ft | 231 kts | 282° |
| 2026-04-24 23:48 | 33.94728 | -118.08117 | 2686 ft | 239 kts | 281° |
| 2026-04-24 23:48 | 33.95109 | -118.10062 | 2534 ft | 236 kts | 281° |
| 2026-04-24 23:48 | 33.95481 | -118.11918 | 2531 ft | 224 kts | 280° |
| 2026-04-24 23:48 | 33.95862 | -118.13680 | 2535 ft | 210 kts | 281° |
| 2026-04-24 23:49 | 33.96238 | -118.15334 | 2527 ft | 202 kts | 281° |
| 2026-04-24 23:49 | 33.96599 | -118.16948 | 2541 ft | 197 kts | 280° |
| 2026-04-24 23:49 | 33.96745 | -118.18574 | 2355 ft | 192 kts | 264° |
| 2026-04-24 23:49 | 33.96639 | -118.20128 | 2223 ft | 183 kts | 258° |
| 2026-04-24 23:50 | 33.96544 | -118.21621 | 2118 ft | 171 kts | 266° |
| 2026-04-24 23:50 | 33.96404 | -118.22964 | 1993 ft | 156 kts | 248° |
| 2026-04-24 23:50 | 33.96013 | -118.24162 | 1752 ft | 152 kts | 242° |
| 2026-04-24 23:50 | 33.95532 | -118.25321 | 1490 ft | 159 kts | 242° |
| 2026-04-24 23:51 | 33.95119 | -118.26548 | 1354 ft | 155 kts | 249° |
| 2026-04-24 23:51 | 33.94866 | -118.27821 | 1064 ft | 155 kts | 252° |
| 2026-04-24 23:51 | 33.94603 | -118.29064 | 854 ft | 152 kts | 259° |
| 2026-04-24 23:51 | 33.94467 | -118.30324 | 805 ft | 154 kts | 261° |
| 2026-04-24 23:52 | 33.94338 | -118.31608 | 780 ft | 150 kts | 263° |
| 2026-04-24 23:52 | 33.94207 | -118.32888 | 688 ft | 156 kts | 263° |
| 2026-04-24 23:52 | 33.94126 | -118.34191 | 590 ft | 153 kts | 266° |
| 2026-04-24 23:52 | 33.94033 | -118.35472 | 477 ft | 156 kts | 262° |
| 2026-04-24 23:53 | 33.93896 | -118.36754 | 411 ft | 157 kts | 262° |
| 2026-04-24 23:53 | 33.93764 | -118.38042 | 239 ft | 149 kts | 263° |
| 2026-04-24 23:53 | 33.93648 | -118.39196 | 139 ft | 127 kts | 263° |
| 2026-04-24 23:53 | 33.93546 | -118.40123 | 128 ft | 97 kts | 262° |
| 2026-04-24 23:54 | 33.93535 | -118.40422 | 128 ft | 3 kts | 283° |
| 2026-04-24 23:54 | 33.93553 | -118.40503 | 126 ft | 11 kts | 285° |
| 2026-04-24 23:54 | 33.93559 | -118.40526 | 127 ft | 0 kts | 288° |
| 2026-04-24 23:55 | 33.93563 | -118.40540 | 128 ft | 9 kts | 288° |
| 2026-04-24 23:55 | 33.93589 | -118.40645 | 129 ft | 7 kts | 282° |
| 2026-04-24 23:55 | 33.93593 | -118.40723 | 127 ft | 12 kts | 270° |
| 2026-04-24 23:55 | 33.93604 | -118.40824 | 128 ft | 11 kts | 285° |
| 2026-04-24 23:56 | 33.93640 | -118.40882 | 127 ft | 7 kts | 331° |
| 2026-04-24 23:56 | 33.93704 | -118.40900 | 127 ft | 12 kts | 351° |
| 2026-04-24 23:56 | 33.93774 | -118.40912 | 127 ft | 9 kts | 352° |
| 2026-04-24 23:56 | 33.93834 | -118.40914 | 127 ft | 10 kts | 19° |
| 2026-04-24 23:57 | 33.93877 | -118.40830 | 130 ft | 15 kts | 79° |
| 2026-04-24 23:57 | 33.93891 | -118.40683 | 129 ft | 21 kts | 82° |
| 2026-04-24 23:57 | 33.93910 | -118.40485 | 126 ft | 26 kts | 83° |
| 2026-04-24 23:57 | 33.93935 | -118.40243 | 127 ft | 31 kts | 83° |
| 2026-04-24 23:58 | 33.93958 | -118.40065 | 125 ft | 15 kts | 72° |
| 2026-04-24 23:58 | 33.94010 | -118.40004 | 127 ft | 5 kts | 28° |
| 2026-04-24 23:58 | 33.94023 | -118.39995 | 124 ft | 0 kts | 27° |